createdAt,value
2019-04-21T00:00:11.643Z,1020.80
2019-04-21T00:01:12.369Z,1020.78
2019-04-21T00:02:08.903Z,1020.77
2019-04-21T00:03:15.250Z,1020.77
2019-04-21T00:04:19.798Z,1020.76
2019-04-21T00:05:35.190Z,1020.75
2019-04-21T00:06:32.428Z,1020.74
2019-04-21T00:07:29.707Z,1020.73
2019-04-21T00:08:41.453Z,1020.72
2019-04-21T00:09:36.277Z,1020.68
2019-04-21T00:10:33.352Z,1020.69
2019-04-21T00:11:33.020Z,1020.70
2019-04-21T00:12:25.354Z,1020.65
2019-04-21T00:13:23.779Z,1020.64
2019-04-21T00:14:23.676Z,1020.61
2019-04-21T00:15:16.725Z,1020.60
2019-04-21T00:16:11.969Z,1020.55
2019-04-21T00:17:13.141Z,1020.56
2019-04-21T00:18:10.428Z,1020.57
2019-04-21T00:19:14.541Z,1020.59
2019-04-21T00:20:19.380Z,1020.60
2019-04-21T00:21:20.491Z,1020.57
2019-04-21T00:22:20.335Z,1020.58
2019-04-21T00:23:24.297Z,1020.55
2019-04-21T00:24:20.340Z,1020.55
2019-04-21T00:25:23.515Z,1020.54
2019-04-21T00:26:30.339Z,1020.52
2019-04-21T00:27:26.528Z,1020.54
2019-04-21T00:28:39.539Z,1020.50
2019-04-21T00:29:32.651Z,1020.51
2019-04-21T00:30:32.946Z,1020.51
2019-04-21T00:31:24.653Z,1020.53
2019-04-21T00:32:21.997Z,1020.47
2019-04-21T00:33:17.119Z,1020.48
2019-04-21T00:34:09.107Z,1020.49
2019-04-21T00:35:13.294Z,1020.48
2019-04-21T00:36:14.830Z,1020.50
2019-04-21T00:37:17.978Z,1020.47
2019-04-21T00:38:32.179Z,1020.46
2019-04-21T00:39:37.167Z,1020.47
2019-04-21T00:40:31.873Z,1020.42
2019-04-21T00:41:33.840Z,1020.43
2019-04-21T00:42:31.544Z,1020.39
2019-04-21T00:43:25.156Z,1020.42
2019-04-21T00:44:18.074Z,1020.39
2019-04-21T00:45:25.195Z,1020.39
2019-04-21T00:46:25.057Z,1020.38
2019-04-21T00:47:32.480Z,1020.35
2019-04-21T00:48:29.942Z,1020.35
2019-04-21T00:49:24.283Z,1020.30
2019-04-21T00:50:34.085Z,1020.25
2019-04-21T00:53:37.137Z,1020.26
2019-04-21T00:54:37.319Z,1020.21
2019-04-21T00:55:34.049Z,1020.19
2019-04-21T00:56:27.636Z,1020.21
2019-04-21T00:57:35.711Z,1020.17
2019-04-21T00:58:33.168Z,1020.17
2019-04-21T00:59:39.195Z,1020.15
2019-04-21T01:00:27.751Z,1020.12
2019-04-21T01:01:28.057Z,1020.12
2019-04-21T01:02:36.386Z,1020.08
2019-04-21T01:03:32.696Z,1020.02
2019-04-21T01:04:33.833Z,1020.06
2019-04-21T01:05:27.186Z,1020.03
2019-04-21T01:06:30.194Z,1020.05
2019-04-21T01:07:31.482Z,1020.04
2019-04-21T01:08:28.215Z,1020.04
2019-04-21T01:09:26.181Z,1020.01
2019-04-21T01:10:20.775Z,1019.95
2019-04-21T01:11:31.841Z,1019.95
2019-04-21T01:12:31.733Z,1019.95
2019-04-21T01:13:39.482Z,1019.94
2019-04-21T01:14:34.361Z,1019.95
2019-04-21T01:16:34.510Z,1019.94
2019-04-21T01:17:32.785Z,1019.97
2019-04-21T01:18:31.388Z,1019.93
2019-04-21T01:19:25.158Z,1019.94
2019-04-21T01:20:16.869Z,1019.93
2019-04-21T01:21:13.949Z,1019.91
2019-04-21T01:22:07.185Z,1019.91
2019-04-21T01:24:13.350Z,1019.87
2019-04-21T01:25:15.936Z,1019.88
2019-04-21T01:26:26.330Z,1019.87
2019-04-21T01:27:21.396Z,1019.91
2019-04-21T01:28:26.530Z,1019.89
2019-04-21T01:29:27.722Z,1019.86
2019-04-21T01:30:29.713Z,1019.88
2019-04-21T01:31:25.804Z,1019.90
2019-04-21T01:32:29.654Z,1019.85
2019-04-21T01:33:36.137Z,1019.86
2019-04-21T01:34:29.037Z,1019.78
2019-04-21T01:35:26.932Z,1019.80
2019-04-21T01:36:24.538Z,1019.77
2019-04-21T01:37:38.513Z,1019.78
2019-04-21T01:38:35.747Z,1019.79
2019-04-21T01:39:29.462Z,1019.80
2019-04-21T01:40:38.356Z,1019.81
2019-04-21T01:41:37.171Z,1019.83
2019-04-21T01:42:25.641Z,1019.78
2019-04-21T01:43:27.835Z,1019.79
2019-04-21T01:44:30.301Z,1019.78
2019-04-21T01:45:27.722Z,1019.78
2019-04-21T01:46:25.936Z,1019.79
2019-04-21T01:47:20.168Z,1019.76
2019-04-21T01:48:24.093Z,1019.79
2019-04-21T01:49:19.187Z,1019.74
2019-04-21T01:50:25.904Z,1019.80
2019-04-21T01:51:22.514Z,1019.75
2019-04-21T01:53:34.805Z,1019.71
2019-04-21T01:54:31.011Z,1019.73
2019-04-21T01:55:28.929Z,1019.70
2019-04-21T01:56:25.758Z,1019.68
2019-04-21T01:57:26.276Z,1019.65
2019-04-21T01:58:19.519Z,1019.63
2019-04-21T01:59:12.761Z,1019.65
2019-04-21T02:00:19.031Z,1019.61
2019-04-21T02:01:28.467Z,1019.63
2019-04-21T02:02:32.602Z,1019.60
2019-04-21T02:04:29.364Z,1019.57
2019-04-21T02:05:34.391Z,1019.59
2019-04-21T02:06:27.122Z,1019.57
2019-04-21T02:07:29.710Z,1019.58
2019-04-21T02:08:28.802Z,1019.56
2019-04-21T02:09:27.384Z,1019.58
2019-04-21T02:10:27.355Z,1019.60
2019-04-21T02:11:30.000Z,1019.57
2019-04-21T02:12:25.476Z,1019.57
2019-04-21T02:13:23.505Z,1019.55
2019-04-21T02:14:31.193Z,1019.55
2019-04-21T02:15:29.695Z,1019.54
2019-04-21T02:16:32.746Z,1019.51
2019-04-21T02:17:43.410Z,1019.49
2019-04-21T02:18:27.294Z,1019.49
2019-04-21T02:19:23.424Z,1019.45
2019-04-21T02:20:19.388Z,1019.44
2019-04-21T02:21:21.870Z,1019.45
2019-04-21T02:22:43.204Z,1019.46
2019-04-21T02:23:36.497Z,1019.42
2019-04-21T02:24:37.368Z,1019.38
2019-04-21T02:25:26.134Z,1019.42
2019-04-21T02:26:31.984Z,1019.43
2019-04-21T02:27:31.925Z,1019.46
2019-04-21T02:28:40.483Z,1019.36
2019-04-21T02:29:37.665Z,1019.42
2019-04-21T02:30:49.260Z,1019.41
2019-04-21T02:31:37.623Z,1019.41
2019-04-21T02:34:42.444Z,1019.33
2019-04-21T02:38:52.982Z,1019.28
2019-04-21T02:39:40.590Z,1019.30
2019-04-21T02:40:44.152Z,1019.28
2019-04-21T02:41:43.423Z,1019.27
2019-04-21T02:42:38.075Z,1019.21
2019-04-21T02:43:37.706Z,1019.18
2019-04-21T02:44:49.634Z,1019.21
2019-04-21T02:46:37.936Z,1019.14
2019-04-21T02:47:58.421Z,1019.11
2019-04-21T02:48:39.112Z,1019.13
2019-04-21T02:49:45.606Z,1019.12
2019-04-21T02:54:28.736Z,1019.08
2019-04-21T02:54:48.065Z,1019.10
2019-04-21T02:55:42.322Z,1019.08
2019-04-21T02:58:43.062Z,1019.06
2019-04-21T02:59:42.908Z,1019.01
2019-04-21T03:00:36.855Z,1019.04
2019-04-21T03:02:42.832Z,1019.01
2019-04-21T03:03:37.926Z,1019.03
2019-04-21T03:04:42.984Z,1019.01
2019-04-21T03:08:44.359Z,1018.91
2019-04-21T03:10:43.311Z,1018.89
2019-04-21T03:11:25.153Z,1018.89
2019-04-21T03:12:28.956Z,1018.87
2019-04-21T03:13:44.493Z,1018.85
2019-04-21T03:15:37.264Z,1018.85
2019-04-21T03:16:42.927Z,1018.85
2019-04-21T03:18:45.908Z,1018.77
2019-04-21T03:19:45.510Z,1018.82
2019-04-21T03:20:53.197Z,1018.77
2019-04-21T03:21:38.740Z,1018.73
2019-04-21T03:23:48.357Z,1018.73
2019-04-21T03:24:53.989Z,1018.72
2019-04-21T03:25:41.876Z,1018.73
2019-04-21T03:27:53.866Z,1018.67
2019-04-21T03:29:38.548Z,1018.66
2019-04-21T03:32:05.543Z,1018.66
2019-04-21T03:33:14.004Z,1018.60
2019-04-21T03:36:13.332Z,1018.57
2019-04-21T03:37:36.899Z,1018.60
2019-04-21T03:39:37.234Z,1018.61
2019-04-21T03:40:34.089Z,1018.61
2019-04-21T03:41:39.955Z,1018.59
2019-04-21T03:42:52.940Z,1018.60
2019-04-21T03:43:38.314Z,1018.59
2019-04-21T03:44:40.067Z,1018.56
2019-04-21T03:45:39.137Z,1018.58
2019-04-21T03:48:33.985Z,1018.58
2019-04-21T03:49:43.183Z,1018.56
2019-04-21T03:50:33.752Z,1018.53
2019-04-21T03:51:37.148Z,1018.52
2019-04-21T03:52:42.578Z,1018.50
2019-04-21T03:53:32.498Z,1018.48
2019-04-21T03:54:41.459Z,1018.48
2019-04-21T03:56:53.528Z,1018.48
2019-04-21T03:57:57.398Z,1018.49
2019-04-21T03:59:38.196Z,1018.49
2019-04-21T04:00:49.788Z,1018.48
2019-04-21T04:04:37.173Z,1018.54
2019-04-21T04:05:49.570Z,1018.59
2019-04-21T04:06:38.723Z,1018.55
2019-04-21T04:09:41.708Z,1018.55
2019-04-21T04:10:36.461Z,1018.55
2019-04-21T04:11:39.755Z,1018.58
2019-04-21T04:12:35.008Z,1018.56
2019-04-21T04:13:53.395Z,1018.58
2019-04-21T04:14:38.854Z,1018.57
2019-04-21T04:15:39.589Z,1018.59
2019-04-21T04:16:37.518Z,1018.58
2019-04-21T04:17:36.050Z,1018.55
2019-04-21T04:19:51.647Z,1018.58
2019-04-21T04:20:35.657Z,1018.56
2019-04-21T04:21:39.481Z,1018.56
2019-04-21T04:22:45.603Z,1018.56
2019-04-21T04:23:41.554Z,1018.54
2019-04-21T04:28:50.184Z,1018.52
2019-04-21T04:29:31.787Z,1018.59
2019-04-21T04:31:39.589Z,1018.55
2019-04-21T04:32:34.710Z,1018.52
2019-04-21T04:34:40.453Z,1018.52
2019-04-21T04:35:46.147Z,1018.54
2019-04-21T04:36:46.520Z,1018.54
2019-04-21T04:37:36.695Z,1018.49
2019-04-21T04:38:41.571Z,1018.53
2019-04-21T04:39:42.842Z,1018.55
2019-04-21T04:40:31.488Z,1018.54
2019-04-21T04:41:53.135Z,1018.56
2019-04-21T04:43:55.490Z,1018.54
2019-04-21T04:46:07.193Z,1018.50
2019-04-21T04:46:52.788Z,1018.54
2019-04-21T04:47:35.293Z,1018.52
2019-04-21T04:48:34.882Z,1018.52
2019-04-21T04:49:43.519Z,1018.54
2019-04-21T04:50:41.074Z,1018.54
2019-04-21T04:51:49.441Z,1018.52
2019-04-21T04:52:38.355Z,1018.53
2019-04-21T04:53:40.504Z,1018.54
2019-04-21T04:55:33.847Z,1018.53
2019-04-21T04:56:43.491Z,1018.52
2019-04-21T05:00:34.970Z,1018.53
2019-04-21T05:03:43.842Z,1018.52
2019-04-21T05:05:38.156Z,1018.50
2019-04-21T05:07:52.202Z,1018.48
2019-04-21T05:08:43.900Z,1018.45
2019-04-21T05:09:31.934Z,1018.52
2019-04-21T05:10:51.455Z,1018.41
2019-04-21T05:12:30.962Z,1018.43
2019-04-21T05:13:37.452Z,1018.41
2019-04-21T05:14:29.807Z,1018.41
2019-04-21T05:15:25.305Z,1018.42
2019-04-21T05:16:44.659Z,1018.38
2019-04-21T05:18:34.851Z,1018.36
2019-04-21T05:20:29.920Z,1018.41
2019-04-21T05:22:30.988Z,1018.36
2019-04-21T05:23:27.991Z,1018.36
2019-04-21T05:24:25.552Z,1018.32
2019-04-21T05:25:22.355Z,1018.35
2019-04-21T05:26:14.326Z,1018.34
2019-04-21T05:27:16.690Z,1018.32
2019-04-21T05:28:15.146Z,1018.38
2019-04-21T05:29:15.830Z,1018.31
2019-04-21T05:30:28.621Z,1018.33
2019-04-21T05:31:25.411Z,1018.31
2019-04-21T05:32:29.887Z,1018.31
2019-04-21T05:33:27.665Z,1018.38
2019-04-21T05:34:21.990Z,1018.50
2019-04-21T05:35:26.709Z,1018.66
2019-04-21T05:36:24.734Z,1018.83
2019-04-21T05:37:25.697Z,1018.88
2019-04-21T05:38:22.362Z,1018.92
2019-04-21T05:39:18.778Z,1018.94
2019-04-21T05:40:18.394Z,1018.98
2019-04-21T05:41:15.586Z,1019.00
2019-04-21T05:42:10.598Z,1019.06
2019-04-21T05:43:21.351Z,1019.03
2019-04-21T05:44:28.024Z,1019.08
2019-04-21T05:45:26.849Z,1019.09
2019-04-21T05:46:27.977Z,1019.04
2019-04-21T05:47:26.561Z,1019.11
2019-04-21T05:49:22.206Z,1019.12
2019-04-21T05:50:23.658Z,1019.14
2019-04-21T05:51:20.528Z,1019.20
2019-04-21T05:52:23.198Z,1019.17
2019-04-21T05:53:31.398Z,1019.18
2019-04-21T05:54:29.679Z,1019.22
2019-04-21T05:56:15.970Z,1019.17
2019-04-21T05:57:17.160Z,1019.22
2019-04-21T05:58:12.043Z,1019.27
2019-04-21T05:59:12.127Z,1019.27
2019-04-21T06:01:24.145Z,1019.27
2019-04-21T06:04:48.156Z,1018.96
2019-04-21T06:06:26.477Z,1018.90
2019-04-21T06:07:28.522Z,1018.75
2019-04-21T06:08:25.137Z,1018.74
2019-04-21T06:09:32.071Z,1018.67
2019-04-21T06:10:27.391Z,1018.69
2019-04-21T06:11:29.000Z,1018.79
2019-04-21T06:12:29.800Z,1019.01
2019-04-21T06:13:48.230Z,1019.09
2019-04-21T06:15:14.313Z,1019.09
2019-04-21T06:16:13.947Z,1019.00
2019-04-21T06:18:20.173Z,1018.89
2019-04-21T06:19:11.485Z,1018.91
2019-04-21T06:20:12.566Z,1018.90
2019-04-21T06:21:18.940Z,1018.91
2019-04-21T06:22:15.131Z,1018.90
2019-04-21T06:23:18.092Z,1018.92
2019-04-21T06:24:18.750Z,1018.91
2019-04-21T06:27:14.843Z,1018.94
2019-04-21T06:28:22.622Z,1018.95
2019-04-21T06:29:14.986Z,1018.95
2019-04-21T06:30:14.674Z,1018.87
2019-04-21T06:31:30.754Z,1018.74
2019-04-21T06:33:16.714Z,1018.64
2019-04-21T06:34:21.463Z,1018.56
2019-04-21T06:35:24.228Z,1018.50
2019-04-21T06:36:31.959Z,1018.51
2019-04-21T06:37:34.872Z,1018.46
2019-04-21T06:38:21.337Z,1018.47
2019-04-21T06:39:19.576Z,1018.47
2019-04-21T06:40:21.343Z,1018.43
2019-04-21T06:41:23.365Z,1018.52
2019-04-21T06:42:16.240Z,1018.53
2019-04-21T06:43:25.945Z,1018.54
2019-04-21T06:45:25.449Z,1018.68
2019-04-21T06:46:21.067Z,1018.59
2019-04-21T06:47:26.637Z,1018.76
2019-04-21T06:48:20.753Z,1018.76
2019-04-21T06:49:08.101Z,1018.71
2019-04-21T06:50:20.401Z,1018.58
2019-04-21T06:51:15.107Z,1018.51
2019-04-21T06:52:33.169Z,1018.47
2019-04-21T06:53:21.010Z,1018.42
2019-04-21T06:54:16.055Z,1018.46
2019-04-21T06:55:13.965Z,1018.48
2019-04-21T06:56:14.927Z,1018.45
2019-04-21T06:57:16.803Z,1018.39
2019-04-21T06:59:09.724Z,1018.35
2019-04-21T07:00:13.783Z,1018.32
2019-04-21T07:01:15.832Z,1018.30
2019-04-21T07:05:15.698Z,1018.24
2019-04-21T07:06:13.076Z,1018.35
2019-04-21T07:07:13.046Z,1018.37
2019-04-21T07:08:30.966Z,1018.41
2019-04-21T07:10:14.356Z,1018.35
2019-04-21T07:11:12.431Z,1018.40
2019-04-21T07:12:13.776Z,1018.41
2019-04-21T07:13:07.804Z,1018.41
2019-04-21T07:14:25.665Z,1018.43
2019-04-21T07:15:14.782Z,1018.46
2019-04-21T07:22:11.132Z,1018.46
2019-04-21T07:23:10.106Z,1018.39
2019-04-21T07:24:17.308Z,1018.38
2019-04-21T07:25:10.499Z,1018.38
2019-04-21T07:26:03.069Z,1018.33
2019-04-21T07:27:09.886Z,1018.29
2019-04-21T07:28:05.241Z,1018.30
2019-04-21T07:29:07.649Z,1018.32
2019-04-21T07:30:28.025Z,1018.29
2019-04-21T07:31:13.022Z,1018.35
2019-04-21T07:32:09.349Z,1018.43
2019-04-21T07:33:33.367Z,1018.47
2019-04-21T07:34:14.573Z,1018.42
2019-04-21T07:35:50.616Z,1018.32
2019-04-21T07:36:56.586Z,1018.31
2019-04-21T07:37:53.489Z,1018.32
2019-04-21T07:38:49.852Z,1018.36
2019-04-21T07:39:49.415Z,1018.50
2019-04-21T07:40:48.505Z,1018.43
2019-04-21T07:41:43.782Z,1018.40
2019-04-21T07:42:47.731Z,1018.25
2019-04-21T07:43:47.285Z,1018.28
2019-04-21T07:44:46.259Z,1018.29
2019-04-21T07:45:46.004Z,1018.33
2019-04-21T07:46:46.352Z,1018.35
2019-04-21T07:47:53.145Z,1018.34
2019-04-21T07:48:52.516Z,1018.40
2019-04-21T07:49:55.207Z,1018.46
2019-04-21T07:50:56.365Z,1018.35
2019-04-21T07:51:52.929Z,1018.31
2019-04-21T07:52:55.000Z,1018.44
2019-04-21T07:53:59.670Z,1018.50
2019-04-21T07:54:57.552Z,1018.41
2019-04-21T07:55:30.696Z,1018.43
2019-04-21T07:56:34.974Z,1018.49
2019-04-21T07:57:39.559Z,1018.18
2019-04-21T07:58:53.581Z,1018.18
2019-04-21T08:00:12.502Z,1018.25
2019-04-21T08:01:07.430Z,1018.18
2019-04-21T08:01:50.754Z,1018.16
2019-04-21T08:02:49.118Z,1018.15
2019-04-21T08:03:55.403Z,1018.09
2019-04-21T08:05:04.116Z,1018.07
2019-04-21T08:05:53.752Z,1018.08
2019-04-21T08:06:51.909Z,1018.09
2019-04-21T08:07:52.009Z,1018.05
2019-04-21T08:08:49.096Z,1018.04
2019-04-21T08:09:47.188Z,1018.06
2019-04-21T08:10:47.517Z,1018.03
2019-04-21T08:11:44.166Z,1018.02
2019-04-21T08:12:48.163Z,1018.15
2019-04-21T08:14:01.126Z,1018.14
2019-04-21T08:14:55.309Z,1018.13
2019-04-21T08:15:52.813Z,1018.22
2019-04-21T08:16:51.136Z,1018.04
2019-04-21T08:17:48.495Z,1018.00
2019-04-21T08:18:52.413Z,1018.04
2019-04-21T08:19:43.042Z,1017.98
2019-04-21T08:20:47.928Z,1017.97
2019-04-21T08:22:51.563Z,1017.98
2019-04-21T08:23:48.533Z,1017.97
2019-04-21T08:24:54.353Z,1018.00
2019-04-21T08:26:06.577Z,1017.98
2019-04-21T08:26:51.455Z,1017.94
2019-04-21T08:28:53.715Z,1017.92
2019-04-21T08:29:52.188Z,1017.98
2019-04-21T08:30:49.831Z,1017.97
2019-04-21T08:31:56.187Z,1017.87
2019-04-21T08:33:55.380Z,1017.81
2019-04-21T08:34:54.900Z,1017.78
2019-04-21T08:37:08.649Z,1017.79
2019-04-21T08:37:48.327Z,1017.76
2019-04-21T08:38:51.519Z,1017.74
2019-04-21T08:39:59.700Z,1017.72
2019-04-21T08:40:52.869Z,1017.76
2019-04-21T08:41:51.274Z,1017.72
2019-04-21T08:42:54.062Z,1017.70
2019-04-21T08:44:02.518Z,1017.72
2019-04-21T08:45:52.626Z,1017.70
2019-04-21T08:47:33.299Z,1017.67
2019-04-21T08:48:40.444Z,1017.67
2019-04-21T08:50:30.592Z,1017.71
2019-04-21T08:51:33.093Z,1017.73
2019-04-21T08:53:35.778Z,1017.64
2019-04-21T08:54:33.330Z,1017.68
2019-04-21T08:55:32.021Z,1017.73
2019-04-21T08:56:36.899Z,1017.79
2019-04-21T08:57:44.195Z,1017.70
2019-04-21T08:58:39.473Z,1017.81
2019-04-21T08:59:37.621Z,1017.76
2019-04-21T09:00:36.957Z,1017.74
2019-04-21T09:01:36.415Z,1017.65
2019-04-21T09:02:35.790Z,1017.64
2019-04-21T09:03:41.410Z,1017.71
2019-04-21T09:04:29.088Z,1017.75
2019-04-21T09:05:33.616Z,1017.78
2019-04-21T09:06:41.983Z,1017.76
2019-04-21T09:07:47.505Z,1017.72
2019-04-21T09:08:33.113Z,1017.64
2019-04-21T09:09:35.274Z,1017.56
2019-04-21T09:10:35.662Z,1017.57
2019-04-21T09:11:28.780Z,1017.58
2019-04-21T09:12:33.146Z,1017.58
2019-04-21T09:13:32.135Z,1017.75
2019-04-21T09:14:33.538Z,1017.71
2019-04-21T09:15:32.453Z,1017.60
2019-04-21T09:16:30.942Z,1017.66
2019-04-21T09:17:25.251Z,1017.62
2019-04-21T09:18:26.938Z,1017.61
2019-04-21T09:19:45.650Z,1017.62
2019-04-21T09:20:33.014Z,1017.68
2019-04-21T09:21:32.337Z,1017.73
2019-04-21T09:22:33.432Z,1017.72
2019-04-21T09:23:36.443Z,1017.75
2019-04-21T09:24:26.682Z,1017.81
2019-04-21T09:25:33.350Z,1017.81
2019-04-21T09:26:29.303Z,1017.81
2019-04-21T09:27:33.678Z,1017.73
2019-04-21T09:28:25.674Z,1017.67
2019-04-21T09:29:25.009Z,1017.67
2019-04-21T09:30:13.078Z,1017.69
2019-04-21T09:31:17.961Z,1017.56
2019-04-21T09:32:18.334Z,1017.51
2019-04-21T09:33:13.973Z,1017.42
2019-04-21T09:34:20.925Z,1017.52
2019-04-21T09:35:15.002Z,1017.66
2019-04-21T09:36:17.471Z,1017.58
2019-04-21T09:37:26.509Z,1017.56
2019-04-21T09:38:22.661Z,1017.59
2019-04-21T09:39:16.591Z,1017.43
2019-04-21T09:40:14.956Z,1017.36
2019-04-21T09:41:17.545Z,1017.40
2019-04-21T09:42:13.588Z,1017.53
2019-04-21T09:43:18.685Z,1017.49
2019-04-21T09:44:17.230Z,1017.53
2019-04-21T09:45:13.999Z,1017.56
2019-04-21T09:46:13.913Z,1017.57
2019-04-21T09:47:14.286Z,1017.57
2019-04-21T09:48:17.682Z,1017.56
2019-04-21T09:49:18.671Z,1017.54
2019-04-21T09:50:13.435Z,1017.48
2019-04-21T09:51:13.057Z,1017.46
2019-04-21T09:52:18.597Z,1017.50
2019-04-21T09:53:20.932Z,1017.46
2019-04-21T09:54:20.494Z,1017.46
2019-04-21T09:55:17.889Z,1017.46
2019-04-21T09:56:16.695Z,1017.45
2019-04-21T09:57:25.664Z,1017.45
2019-04-21T09:58:23.199Z,1017.40
2019-04-21T09:59:23.069Z,1017.42
2019-04-21T10:00:18.771Z,1017.42
2019-04-21T10:01:20.613Z,1017.34
2019-04-21T10:02:18.182Z,1017.33
2019-04-21T10:03:15.733Z,1017.35
2019-04-21T10:04:12.499Z,1017.37
2019-04-21T10:05:12.486Z,1017.37
2019-04-21T10:06:14.453Z,1017.35
2019-04-21T10:07:24.571Z,1017.27
2019-04-21T10:08:12.596Z,1017.26
2019-04-21T10:09:14.797Z,1017.23
2019-04-21T10:10:12.909Z,1017.26
2019-04-21T10:11:12.477Z,1017.21
2019-04-21T10:12:12.474Z,1017.20
2019-04-21T10:13:12.898Z,1017.19
2019-04-21T10:14:13.518Z,1017.14
2019-04-21T10:15:12.471Z,1017.21
2019-04-21T10:16:13.253Z,1017.15
2019-04-21T10:17:13.095Z,1017.17
2019-04-21T10:18:13.045Z,1017.14
2019-04-21T10:19:13.187Z,1017.09
2019-04-21T10:20:13.833Z,1017.09
2019-04-21T10:21:13.187Z,1017.08
2019-04-21T10:22:12.687Z,1017.08
2019-04-21T10:23:13.559Z,1017.04
2019-04-21T10:24:12.599Z,1017.01
2019-04-21T10:25:12.686Z,1016.97
2019-04-21T10:26:12.727Z,1016.95
2019-04-21T10:27:13.367Z,1016.90
2019-04-21T10:28:12.890Z,1016.88
2019-04-21T10:29:17.021Z,1016.91
2019-04-21T10:30:12.465Z,1016.90
2019-04-21T10:31:12.462Z,1016.86
2019-04-21T10:32:13.406Z,1016.86
2019-04-21T10:33:12.610Z,1016.90
2019-04-21T10:34:13.519Z,1016.89
2019-04-21T10:35:12.928Z,1016.83
2019-04-21T10:36:13.146Z,1016.80
2019-04-21T10:37:13.327Z,1016.81
2019-04-21T10:38:24.007Z,1016.79
2019-04-21T10:39:13.621Z,1016.75
2019-04-21T10:40:13.644Z,1016.68
2019-04-21T10:41:12.463Z,1016.69
2019-04-21T10:42:13.162Z,1016.72
2019-04-21T10:43:14.208Z,1016.67
2019-04-21T10:44:13.554Z,1016.65
2019-04-21T10:45:12.768Z,1016.67
2019-04-21T10:46:12.864Z,1016.64
2019-04-21T10:47:12.818Z,1016.60
2019-04-21T10:48:12.798Z,1016.63
2019-04-21T10:49:12.777Z,1016.63
2019-04-21T10:50:13.101Z,1016.57
2019-04-21T10:51:13.062Z,1016.55
2019-04-21T10:52:13.015Z,1016.52
2019-04-21T10:53:13.387Z,1016.51
2019-04-21T10:54:13.651Z,1016.53
2019-04-21T10:55:32.386Z,1016.51
2019-04-21T10:56:19.942Z,1016.53
2019-04-21T10:57:12.570Z,1016.51
2019-04-21T10:58:12.475Z,1016.49
2019-04-21T10:59:12.474Z,1016.50
2019-04-21T11:00:13.982Z,1016.50
2019-04-21T11:01:14.009Z,1016.54
2019-04-21T11:02:12.821Z,1016.44
2019-04-21T11:03:12.990Z,1016.49
2019-04-21T11:04:17.019Z,1016.53
2019-04-21T11:05:12.618Z,1016.45
2019-04-21T11:06:12.752Z,1016.51
2019-04-21T11:07:16.323Z,1016.51
2019-04-21T11:08:23.059Z,1016.52
2019-04-21T11:09:13.758Z,1016.54
2019-04-21T11:10:13.945Z,1016.61
2019-04-21T11:11:12.472Z,1016.54
2019-04-21T11:12:13.576Z,1016.56
2019-04-21T11:13:12.562Z,1016.51
2019-04-21T11:14:13.425Z,1016.55
2019-04-21T11:15:12.476Z,1016.56
2019-04-21T11:16:13.096Z,1016.55
2019-04-21T11:17:12.472Z,1016.60
2019-04-21T11:18:12.472Z,1016.62
2019-04-21T11:19:13.647Z,1016.69
2019-04-21T11:20:12.890Z,1016.66
2019-04-21T11:21:13.285Z,1016.64
2019-04-21T11:22:12.699Z,1016.58
2019-04-21T11:23:12.472Z,1016.57
2019-04-21T11:24:12.471Z,1016.66
2019-04-21T11:25:12.921Z,1016.62
2019-04-21T11:26:13.595Z,1016.66
2019-04-21T11:27:12.811Z,1016.78
2019-04-21T11:28:13.261Z,1016.77
2019-04-21T11:29:12.827Z,1016.69
2019-04-21T11:30:13.640Z,1016.65
2019-04-21T11:31:13.207Z,1016.66
2019-04-21T11:32:12.837Z,1016.79
2019-04-21T11:33:13.140Z,1016.73
2019-04-21T11:34:13.482Z,1016.69
2019-04-21T11:35:12.937Z,1016.68
2019-04-21T11:36:13.328Z,1016.66
2019-04-21T11:37:12.489Z,1016.61
2019-04-21T11:38:18.445Z,1016.81
2019-04-21T11:40:16.268Z,1016.65
2019-04-21T11:41:13.791Z,1016.51
2019-04-21T11:42:12.493Z,1016.53
2019-04-21T11:43:13.591Z,1016.59
2019-04-21T11:44:12.437Z,1016.63
2019-04-21T11:45:12.611Z,1016.61
2019-04-21T11:46:12.825Z,1016.44
2019-04-21T11:47:12.429Z,1016.01
2019-04-21T11:48:12.548Z,1015.85
2019-04-21T11:49:12.626Z,1015.78
2019-04-21T11:50:12.862Z,1015.77
2019-04-21T11:51:13.148Z,1015.73
2019-04-21T11:52:13.296Z,1015.73
2019-04-21T11:53:12.714Z,1015.73
2019-04-21T11:54:12.936Z,1015.65
2019-04-21T11:55:13.078Z,1015.65
2019-04-21T11:56:12.655Z,1015.62
2019-04-21T11:57:20.510Z,1015.59
2019-04-21T11:58:12.387Z,1015.56
2019-04-21T11:59:12.381Z,1015.56
2019-04-21T12:00:13.625Z,1015.51
2019-04-21T12:01:13.756Z,1015.47
2019-04-21T12:02:12.369Z,1015.51
2019-04-21T12:03:15.249Z,1015.55
2019-04-21T12:04:13.836Z,1015.53
2019-04-21T12:05:12.348Z,1015.50
2019-04-21T12:06:13.429Z,1015.51
2019-04-21T12:07:13.315Z,1015.47
2019-04-21T12:08:23.073Z,1015.44
2019-04-21T12:09:12.320Z,1015.42
2019-04-21T12:10:13.406Z,1015.41
2019-04-21T12:11:13.422Z,1015.40
2019-04-21T12:12:12.297Z,1015.31
2019-04-21T12:13:12.284Z,1015.27
2019-04-21T12:14:12.276Z,1015.31
2019-04-21T12:15:14.132Z,1015.25
2019-04-21T12:16:12.878Z,1015.21
2019-04-21T12:17:12.250Z,1015.26
2019-04-21T12:18:12.250Z,1015.23
2019-04-21T12:19:12.595Z,1015.18
2019-04-21T12:20:12.713Z,1015.12
2019-04-21T12:21:13.494Z,1015.13
2019-04-21T12:22:21.054Z,1015.11
2019-04-21T12:23:12.352Z,1015.10
2019-04-21T12:24:13.291Z,1015.12
2019-04-21T12:25:13.312Z,1015.15
2019-04-21T12:26:12.167Z,1015.14
2019-04-21T12:27:12.158Z,1015.14
2019-04-21T12:28:12.259Z,1015.22
2019-04-21T12:29:12.149Z,1015.19
2019-04-21T12:30:13.562Z,1015.05
2019-04-21T12:31:12.117Z,1015.09
2019-04-21T12:32:12.410Z,1015.05
2019-04-21T12:33:12.134Z,1015.05
2019-04-21T12:34:12.242Z,1015.03
2019-04-21T12:35:12.315Z,1014.99
2019-04-21T12:36:12.076Z,1015.07
2019-04-21T12:37:13.036Z,1015.02
2019-04-21T12:38:13.085Z,1015.00
2019-04-21T12:39:12.876Z,1014.94
2019-04-21T12:40:12.708Z,1014.87
2019-04-21T12:41:12.878Z,1014.89
2019-04-21T12:42:12.359Z,1014.82
2019-04-21T12:43:12.600Z,1014.84
2019-04-21T12:44:12.894Z,1014.84
2019-04-21T12:45:13.101Z,1014.80
2019-04-21T12:46:12.111Z,1014.75
2019-04-21T12:47:12.114Z,1014.75
2019-04-21T12:48:11.931Z,1014.76
2019-04-21T12:49:11.945Z,1014.66
2019-04-21T12:50:12.872Z,1014.71
2019-04-21T12:51:12.274Z,1014.67
2019-04-21T12:52:11.890Z,1014.70
2019-04-21T12:53:14.168Z,1014.67
2019-04-21T12:54:12.004Z,1014.69
2019-04-21T12:55:11.850Z,1014.67
2019-04-21T12:56:11.879Z,1014.64
2019-04-21T12:57:11.891Z,1014.64
2019-04-21T12:58:13.047Z,1014.62
2019-04-21T12:59:12.130Z,1014.60
2019-04-21T13:00:13.065Z,1014.57
2019-04-21T13:01:12.576Z,1014.60
2019-04-21T13:02:11.865Z,1014.63
2019-04-21T13:03:11.977Z,1014.59
2019-04-21T13:04:11.738Z,1014.55
2019-04-21T13:05:11.825Z,1014.61
2019-04-21T13:06:11.826Z,1014.56
2019-04-21T13:07:12.962Z,1014.48
2019-04-21T13:08:11.705Z,1014.48
2019-04-21T13:09:14.965Z,1014.52
2019-04-21T13:10:12.689Z,1014.43
2019-04-21T13:11:13.052Z,1014.43
2019-04-21T13:12:12.826Z,1014.41
2019-04-21T13:13:12.185Z,1014.38
2019-04-21T13:14:11.739Z,1014.39
2019-04-21T13:15:11.617Z,1014.32
2019-04-21T13:17:01.416Z,1014.34
2019-04-21T13:18:00.674Z,1014.33
2019-04-21T13:19:00.658Z,1014.29
2019-04-21T13:20:01.199Z,1014.26
2019-04-21T13:21:02.213Z,1014.25
2019-04-21T13:22:01.625Z,1014.27
2019-04-21T13:23:01.810Z,1014.24
2019-04-21T13:24:01.002Z,1014.16
2019-04-21T13:25:00.583Z,1014.13
2019-04-21T13:26:03.107Z,1014.10
2019-04-21T13:27:03.279Z,1014.04
2019-04-21T13:28:00.948Z,1014.04
2019-04-21T13:29:00.645Z,1014.07
2019-04-21T13:30:00.535Z,1014.06
2019-04-21T13:31:00.608Z,1014.05
2019-04-21T13:32:03.203Z,1014.04
2019-04-21T13:33:00.866Z,1014.05
2019-04-21T13:34:02.038Z,1014.01
2019-04-21T13:35:01.245Z,1014.02
2019-04-21T13:36:00.447Z,1014.03
2019-04-21T13:37:01.515Z,1013.95
2019-04-21T13:38:00.604Z,1013.90
2019-04-21T13:39:33.168Z,1013.91
2019-04-21T13:40:22.078Z,1013.88